Time;durP1;ratioP1;P1;durP2;ratioP2;P2;SDS_P1;SDS_P2;PMS_P1;PMS_P2;Temp;Humidity;BMP_temperature;BMP_pressure;BME280_temperature;BME280_humidity;BME280_pressure;Samples;Min_cycle;Max_cycle;Signal;HPM_P1;HPM_P2
2023/12/28 00:01:26;;;;;;;5.55;1.92;;;;;;;8.96;77.00;100754.38;7398321;19;20023;-63
2023/12/28 00:03:54;;;;;;;6.82;2.13;;;;;;;8.87;78.35;100747.06;7397791;19;20051;-61
2023/12/28 00:06:22;;;;;;;5.63;2.05;;;;;;;8.90;78.73;100760.94;7397109;19;20034;-60
2023/12/28 00:08:50;;;;;;;4.72;1.90;;;;;;;8.83;79.34;100772.00;7395769;19;20023;-61
2023/12/28 00:11:31;;;;;;;5.20;2.13;;;;;;;8.81;79.22;100764.16;7397522;19;20364;-62
2023/12/28 00:13:59;;;;;;;4.63;1.80;;;;;;;8.85;79.39;100754.25;7400039;19;20047;-62
2023/12/28 00:16:27;;;;;;;3.83;1.75;;;;;;;8.91;79.16;100767.03;7397527;19;20416;-62
2023/12/28 00:18:55;;;;;;;5.30;1.70;;;;;;;8.90;78.96;100775.94;7395259;19;20028;-62
2023/12/28 00:21:23;;;;;;;4.13;1.85;;;;;;;8.89;78.94;100769.81;7397150;19;20039;-63
2023/12/28 00:23:51;;;;;;;5.22;1.63;;;;;;;8.91;79.15;100767.03;7396742;19;20085;-63
2023/12/28 00:26:21;;;;;;;3.63;1.58;;;;;;;8.87;79.14;100753.19;7396854;19;20074;-62
2023/12/28 00:28:49;;;;;;;6.00;2.03;;;;;;;8.83;79.34;100764.91;7395182;19;20113;-61
2023/12/28 00:31:17;;;;;;;6.45;2.33;;;;;;;8.85;79.17;100759.53;7394565;19;20015;-61
2023/12/28 00:33:45;;;;;;;5.22;2.10;;;;;;;8.88;78.84;100756.69;7397189;19;20377;-61
2023/12/28 00:36:13;;;;;;;3.55;1.88;;;;;;;8.99;78.70;100780.59;7396494;19;20026;-61
2023/12/28 00:38:41;;;;;;;7.53;2.20;;;;;;;8.95;78.89;100750.03;7395564;19;20014;-61
2023/12/28 00:41:09;;;;;;;5.22;1.98;;;;;;;8.87;79.44;100761.13;7396654;19;20026;-61
2023/12/28 00:43:37;;;;;;;8.32;2.45;;;;;;;8.96;79.60;100778.16;7396008;19;20010;-62
2023/12/28 00:46:05;;;;;;;5.25;2.17;;;;;;;8.87;79.77;100789.31;7395785;19;20364;-62
2023/12/28 00:48:32;;;;;;;3.92;1.88;;;;;;;8.88;79.92;100767.25;7395613;19;20483;-61
2023/12/28 00:51:01;;;;;;;4.13;1.83;;;;;;;8.89;79.76;100774.22;7394165;19;20047;-61
2023/12/28 00:53:29;;;;;;;3.63;1.75;;;;;;;8.98;79.49;100774.47;7392537;19;20023;-61
2023/12/28 00:55:57;;;;;;;3.67;1.60;;;;;;;8.93;79.75;100766.00;7396126;19;20040;-61
2023/12/28 00:58:24;;;;;;;4.10;1.75;;;;;;;8.98;79.69;100778.91;7394366;19;20035;-61
2023/12/28 01:00:55;;;;;;;5.55;1.98;;;;;;;8.92;79.86;100772.22;7394181;19;20044;-61
2023/12/28 01:03:23;;;;;;;3.97;1.70;;;;;;;9.02;79.51;100785.66;7396037;19;20081;-61
2023/12/28 01:05:52;;;;;;;4.07;1.90;;;;;;;9.11;79.40;100790.31;7395486;19;20452;-61
2023/12/28 01:08:20;;;;;;;3.08;1.73;;;;;;;9.06;79.36;100792.44;7395306;19;20039;-61
2023/12/28 01:10:48;;;;;;;6.22;2.00;;;;;;;9.09;79.58;100802.81;7392689;19;20025;-61
2023/12/28 01:13:17;;;;;;;6.93;2.30;;;;;;;9.09;79.47;100791.41;7395545;19;20018;-61
2023/12/28 01:15:45;;;;;;;6.68;1.98;;;;;;;9.12;79.37;100807.00;7395409;19;20510;-61
2023/12/28 01:18:13;;;;;;;4.28;1.83;;;;;;;9.08;79.80;100802.88;7395395;19;20015;-62
2023/12/28 01:20:41;;;;;;;5.30;2.10;;;;;;;9.18;79.28;100827.75;7394854;19;20047;-61
2023/12/28 01:23:09;;;;;;;6.38;2.47;;;;;;;9.25;79.39;100834.31;7393985;19;20019;-61
2023/12/28 01:25:37;;;;;;;5.18;1.88;;;;;;;9.29;79.16;100835.81;7394592;19;20026;-61
2023/12/28 01:28:05;;;;;;;4.45;2.10;;;;;;;9.28;78.91;100847.34;7395227;19;20018;-61
2023/12/28 01:30:34;;;;;;;5.35;2.00;;;;;;;9.34;78.98;100857.47;7392327;19;20018;-61
2023/12/28 01:33:02;;;;;;;5.45;1.90;;;;;;;9.31;78.91;100854.19;7394868;19;20018;-61
2023/12/28 01:35:30;;;;;;;5.70;2.00;;;;;;;9.24;78.95;100864.34;7393236;19;20479;-61
2023/12/28 01:38:00;;;;;;;6.03;1.95;;;;;;;9.23;79.18;100858.22;7394570;19;20483;-61
2023/12/28 01:40:28;;;;;;;5.10;1.70;;;;;;;9.21;79.35;100859.25;7391392;19;20593;-61
2023/12/28 01:42:56;;;;;;;4.90;1.80;;;;;;;9.22;79.26;100850.38;7394737;19;20027;-61
2023/12/28 01:45:24;;;;;;;3.72;1.70;;;;;;;9.25;79.09;100847.53;7394240;19;20574;-61
2023/12/28 01:47:53;;;;;;;6.05;1.80;;;;;;;9.32;79.18;100864.69;7394371;19;20026;-61
2023/12/28 01:50:24;;;;;;;7.25;1.90;;;;;;;9.35;78.68;100864.50;7391390;19;20019;-61
2023/12/28 01:52:52;;;;;;;5.70;1.95;;;;;;;9.33;78.72;100871.66;7394273;19;20035;-61
2023/12/28 01:55:21;;;;;;;5.63;1.92;;;;;;;9.28;78.83;100865.84;7393839;19;20019;-61
2023/12/28 01:57:48;;;;;;;5.25;1.77;;;;;;;9.30;78.52;100871.00;7393693;19;20039;-61
2023/12/28 02:00:16;;;;;;;3.97;1.90;;;;;;;9.22;78.46;100876.81;7391529;19;20378;-61
2023/12/28 02:02:45;;;;;;;3.83;1.67;;;;;;;9.10;78.91;100859.13;7392631;19;20010;-61
2023/12/28 02:05:13;;;;;;;6.88;1.90;;;;;;;9.16;78.90;100867.50;7391310;19;20053;-61
2023/12/28 02:07:41;;;;;;;5.63;2.20;;;;;;;9.17;78.90;100871.81;7394178;19;20022;-61
2023/12/28 02:10:09;;;;;;;5.25;2.00;;;;;;;9.20;78.60;100871.63;7389261;19;20412;-61
2023/12/28 02:12:37;;;;;;;5.60;2.10;;;;;;;9.20;78.69;100884.00;7393695;19;20039;-62
2023/12/28 02:15:05;;;;;;;5.78;1.88;;;;;;;9.25;78.33;100866.03;7393515;19;20022;-61
2023/12/28 02:17:37;;;;;;;3.22;1.98;;;;;;;9.28;78.36;100877.25;7391918;19;20014;-61
2023/12/28 02:20:06;;;;;;;5.07;1.98;;;;;;;9.30;78.12;100863.09;7390620;19;20030;-61
2023/12/28 02:22:35;;;;;;;4.70;2.20;;;;;;;9.25;78.56;100858.94;7391661;19;20022;-61
2023/12/28 02:25:07;;;;;;;4.43;1.70;;;;;;;9.34;78.35;100865.41;7391433;19;20022;-61
2023/12/28 02:27:38;;;;;;;5.80;2.10;;;;;;;9.38;77.87;100858.13;7392519;19;20044;-61
2023/12/28 02:30:07;;;;;;;6.72;2.00;;;;;;;9.37;78.04;100861.72;7390105;19;20467;-61
2023/12/28 02:32:58;;;;;;;6.95;2.40;;;;;;;9.36;77.98;100862.69;7390823;19;20026;-61
2023/12/28 02:35:35;;;;;;;5.82;2.03;;;;;;;9.26;78.17;100854.50;7392280;19;20089;-61
2023/12/28 02:38:09;;;;;;;4.43;1.90;;;;;;;9.26;78.44;100847.44;7392368;19;20035;-61
2023/12/28 02:40:39;;;;;;;4.15;1.92;;;;;;;9.29;78.33;100859.59;7391029;19;20010;-61
2023/12/28 02:43:08;;;;;;;5.90;2.55;;;;;;;9.19;78.45;100853.22;7392003;19;20023;-61
2023/12/28 02:45:37;;;;;;;6.43;2.13;;;;;;;9.21;78.30;100853.97;7384589;19;20504;-61
2023/12/28 02:48:06;;;;;;;3.47;1.75;;;;;;;9.24;78.32;100846.69;7391892;19;20440;-62
2023/12/28 02:50:35;;;;;;;5.68;2.00;;;;;;;9.20;78.69;100854.94;7390951;19;20126;-61
2023/12/28 02:53:03;;;;;;;4.68;2.08;;;;;;;9.15;78.57;100854.38;7391721;19;20021;-62
2023/12/28 02:55:31;;;;;;;4.97;2.03;;;;;;;9.14;78.47;100858.81;7392045;19;20029;-62
2023/12/28 02:57:59;;;;;;;4.60;1.90;;;;;;;9.18;78.43;100862.94;7391106;19;20010;-61
2023/12/28 03:00:29;;;;;;;6.57;2.22;;;;;;;9.08;78.82;100847.78;7386957;19;20028;-61
2023/12/28 03:02:57;;;;;;;5.65;2.05;;;;;;;9.15;78.66;100854.38;7388665;19;20014;-62
2023/12/28 03:05:25;;;;;;;4.72;1.90;;;;;;;9.11;78.53;100847.59;7388873;19;20026;-62
2023/12/28 03:07:55;;;;;;;5.07;2.17;;;;;;;9.07;78.81;100840.81;7391050;19;20018;-62
2023/12/28 03:10:23;;;;;;;5.28;2.30;;;;;;;9.05;78.96;100854.16;7388979;19;20024;-62
2023/12/28 03:12:51;;;;;;;6.13;2.13;;;;;;;9.13;78.72;100857.13;7389673;19;20581;-61
2023/12/28 03:15:19;;;;;;;5.95;1.95;;;;;;;9.10;78.75;100846.75;7391524;19;20019;-62
2023/12/28 03:17:47;;;;;;;7.03;2.28;;;;;;;9.15;78.57;100855.22;7389457;19;20125;-61
2023/12/28 03:20:15;;;;;;;7.28;2.50;;;;;;;9.06;78.54;100860.28;7389040;19;20024;-61
2023/12/28 03:22:43;;;;;;;6.30;2.30;;;;;;;9.13;78.73;100841.28;7390838;19;20039;-61
2023/12/28 03:25:11;;;;;;;7.60;2.03;;;;;;;9.03;78.60;100834.91;7391183;19;20018;-61
2023/12/28 03:27:38;;;;;;;4.53;2.22;;;;;;;9.10;78.73;100843.28;7390965;19;20021;-61
2023/12/28 03:30:07;;;;;;;4.65;1.92;;;;;;;9.16;78.59;100842.88;7388630;19;20410;-61
2023/12/28 03:32:35;;;;;;;5.97;2.15;;;;;;;9.11;78.75;100834.38;7391277;19;20372;-61
2023/12/28 03:35:04;;;;;;;6.40;2.25;;;;;;;9.10;78.84;100830.91;7390935;19;20018;-62
2023/12/28 03:37:31;;;;;;;5.25;2.20;;;;;;;9.17;78.48;100826.06;7389344;19;20094;-61
2023/12/28 03:39:59;;;;;;;5.50;2.13;;;;;;;9.21;78.09;100827.56;7389130;19;20088;-61
2023/12/28 03:42:28;;;;;;;4.50;1.88;;;;;;;9.16;78.57;100813.81;7390857;19;20022;-61
2023/12/28 03:44:56;;;;;;;5.00;2.13;;;;;;;9.13;78.72;100829.88;7391086;19;20011;-61
2023/12/28 03:47:24;;;;;;;6.63;2.67;;;;;;;9.12;78.93;100826.38;7390145;19;20039;-61
2023/12/28 03:49:52;;;;;;;5.72;2.10;;;;;;;9.17;78.44;100826.06;7387262;19;20049;-61
2023/12/28 03:52:20;;;;;;;7.40;2.33;;;;;;;9.15;78.76;100815.59;7388707;19;20019;-61
2023/12/28 03:54:48;;;;;;;6.60;2.10;;;;;;;9.16;78.70;100814.66;7389863;19;20011;-61
2023/12/28 03:57:16;;;;;;;5.32;2.10;;;;;;;9.18;78.75;100814.53;7389804;19;20087;-61
2023/12/28 03:59:44;;;;;;;6.65;2.28;;;;;;;9.10;78.81;100806.28;7387462;19;20476;-61
2023/12/28 04:02:12;;;;;;;5.70;2.30;;;;;;;9.11;78.79;100810.63;7389650;19;20025;-61
2023/12/28 04:04:39;;;;;;;4.57;2.30;;;;;;;9.10;79.20;100815.06;7389724;19;20498;-61
2023/12/28 04:07:07;;;;;;;7.18;2.70;;;;;;;9.14;78.86;100805.97;7389679;19;20014;-61
2023/12/28 04:09:35;;;;;;;5.55;2.20;;;;;;;9.23;78.58;100815.94;7388083;19;20014;-61
2023/12/28 04:12:03;;;;;;;6.47;2.45;;;;;;;9.21;78.79;100811.72;7388572;19;20031;-61
2023/12/28 04:14:31;;;;;;;5.10;2.35;;;;;;;9.20;78.75;100820.59;7389644;19;20130;-61
2023/12/28 04:16:59;;;;;;;4.72;2.13;;;;;;;9.19;78.95;100811.78;7389293;19;20048;-61
2023/12/28 04:19:27;;;;;;;5.45;2.22;;;;;;;9.20;78.60;100813.50;7386360;19;20014;-61
2023/12/28 04:21:55;;;;;;;6.05;2.08;;;;;;;9.22;78.80;100827.44;7389286;19;20022;-61
2023/12/28 04:24:23;;;;;;;4.78;2.20;;;;;;;9.24;78.89;100817.63;7389018;19;20570;-61
2023/12/28 04:26:51;;;;;;;6.22;2.20;;;;;;;9.21;79.17;100835.47;7389180;19;20011;-61
2023/12/28 04:29:20;;;;;;;5.50;2.13;;;;;;;9.23;78.85;100820.34;7393799;19;20028;-61
2023/12/28 04:31:48;;;;;;;5.13;2.30;;;;;;;9.18;79.13;100815.38;7395065;19;20018;-61
2023/12/28 04:34:16;;;;;;;7.18;2.38;;;;;;;9.18;79.29;100814.53;7396361;19;20051;-61
2023/12/28 04:36:45;;;;;;;5.15;2.00;;;;;;;9.23;79.05;100818.59;7396024;19;20807;-61
2023/12/28 04:39:13;;;;;;;5.57;2.10;;;;;;;9.22;79.04;100808.09;7394711;19;20030;-61
2023/12/28 04:41:40;;;;;;;5.97;2.30;;;;;;;9.24;79.07;100806.22;7396128;19;20022;-61
2023/12/28 04:44:08;;;;;;;6.00;2.10;;;;;;;9.25;79.33;100807.91;7395801;19;20029;-61
2023/12/28 04:46:44;;;;;;;6.95;2.78;;;;;;;9.17;79.30;100808.41;7396275;19;20032;-61
2023/12/28 04:49:12;;;;;;;5.13;2.20;;;;;;;9.14;79.69;100807.78;7394800;19;20011;-61
2023/12/28 04:51:44;;;;;;;6.60;2.10;;;;;;;9.17;79.42;100799.66;7393019;19;20032;-61
2023/12/28 04:54:12;;;;;;;7.18;2.47;;;;;;;9.18;79.67;100806.63;7395944;19;20086;-61
2023/12/28 04:56:40;;;;;;;5.32;2.03;;;;;;;9.20;79.49;100799.44;7394418;19;20125;-61
2023/12/28 04:59:08;;;;;;;5.10;2.17;;;;;;;9.22;79.55;100794.91;7392565;19;20015;-62
2023/12/28 05:01:41;;;;;;;6.78;2.67;;;;;;;9.22;79.59;100792.25;7392776;19;20339;-61
2023/12/28 05:04:09;;;;;;;5.72;2.03;;;;;;;9.17;80.04;100789.09;7391210;19;20024;-61
2023/12/28 05:06:41;;;;;;;4.45;1.92;;;;;;;9.14;79.56;100774.28;7395321;19;20019;-61
2023/12/28 05:09:09;;;;;;;6.60;2.30;;;;;;;9.24;79.54;100795.66;7393984;19;20547;-62
2023/12/28 05:11:37;;;;;;;7.90;2.50;;;;;;;9.20;79.93;100799.44;7394552;19;20047;-61
2023/12/28 05:14:05;;;;;;;6.15;2.17;;;;;;;9.17;79.92;100786.44;7392373;19;20019;-61
2023/12/28 05:16:37;;;;;;;5.43;2.08;;;;;;;9.16;80.21;100790.88;7394299;19;20014;-61
2023/12/28 05:19:04;;;;;;;6.13;2.40;;;;;;;9.14;80.38;100784.00;7392988;19;20483;-61
2023/12/28 05:21:33;;;;;;;7.15;2.28;;;;;;;9.19;80.25;100780.09;7395334;19;20022;-61
2023/12/28 05:24:01;;;;;;;10.88;2.35;;;;;;;9.10;80.45;100788.63;7394934;19;20046;-61
2023/12/28 05:26:29;;;;;;;7.13;2.17;;;;;;;9.10;80.50;100785.16;7395975;19;20021;-61
2023/12/28 05:28:57;;;;;;;7.82;2.40;;;;;;;9.10;80.83;100799.22;7393603;19;20025;-61
2023/12/28 05:31:24;;;;;;;7.63;2.40;;;;;;;9.14;80.77;100791.94;7393635;19;20018;-61
2023/12/28 05:33:52;;;;;;;8.18;2.10;;;;;;;9.17;80.70;100794.38;7394772;19;20027;-61
2023/12/28 05:36:20;;;;;;;5.65;2.25;;;;;;;9.18;80.51;100801.34;7394691;19;20769;-61
2023/12/28 05:38:48;;;;;;;5.13;2.10;;;;;;;9.20;80.69;100804.72;7392643;19;20499;-61
2023/12/28 05:41:16;;;;;;;7.22;2.05;;;;;;;9.21;80.39;100801.97;7394011;19;20386;-61
2023/12/28 05:43:44;;;;;;;5.20;2.15;;;;;;;9.26;80.51;100788.44;7393571;19;20031;-59
2023/12/28 05:46:12;;;;;;;7.15;1.90;;;;;;;9.24;80.54;100790.38;7393769;19;20035;-60
2023/12/28 05:48:40;;;;;;;6.43;2.38;;;;;;;9.20;80.57;100799.44;7392525;19;20026;-60
2023/12/28 05:51:08;;;;;;;8.20;2.28;;;;;;;9.23;80.64;100805.38;7393998;19;20035;-60
2023/12/28 05:53:35;;;;;;;9.00;2.20;;;;;;;9.18;80.71;100802.19;7393979;19;20023;-60
2023/12/28 05:56:03;;;;;;;6.95;2.00;;;;;;;9.21;80.93;100807.25;7391960;19;20397;-60
2023/12/28 05:58:31;;;;;;;7.20;2.00;;;;;;;9.30;80.23;100810.22;7392266;19;20022;-60
2023/12/28 06:00:59;;;;;;;5.72;2.15;;;;;;;9.34;80.43;100823.13;7393137;19;20017;-62
2023/12/28 06:03:28;;;;;;;6.28;2.40;;;;;;;9.39;80.08;100815.75;7392768;19;20018;-61
2023/12/28 06:05:57;;;;;;;7.80;2.67;;;;;;;9.39;79.95;100801.69;7393089;19;20052;-61
2023/12/28 06:08:24;;;;;;;7.18;2.05;;;;;;;9.44;80.03;100816.28;7391567;19;20374;-61
2023/12/28 06:10:54;;;;;;;7.07;2.20;;;;;;;9.55;79.62;100825.28;7392909;19;20036;-61
2023/12/28 06:13:22;;;;;;;6.47;2.30;;;;;;;9.58;79.67;100817.13;7390959;19;20014;-61
2023/12/28 06:15:50;;;;;;;7.35;2.28;;;;;;;9.63;79.36;100821.16;7393205;19;20019;-61
2023/12/28 06:18:18;;;;;;;6.18;2.05;;;;;;;9.67;79.48;100821.78;7392308;19;20018;-61
2023/12/28 06:20:46;;;;;;;9.95;2.20;;;;;;;9.61;79.62;100833.63;7392988;19;20010;-61
2023/12/28 06:23:14;;;;;;;8.38;2.33;;;;;;;9.59;79.59;100827.59;7393348;19;20022;-61
2023/12/28 06:25:42;;;;;;;10.48;2.47;;;;;;;9.64;79.63;100822.00;7392572;19;20360;-61
2023/12/28 06:28:09;;;;;;;5.53;2.38;;;;;;;9.66;79.54;100814.81;7392420;19;20025;-61
2023/12/28 06:30:39;;;;;;;5.40;1.90;;;;;;;9.73;79.17;100824.03;7392000;19;20382;-61
2023/12/28 06:33:07;;;;;;;7.90;2.22;;;;;;;9.73;78.93;100831.97;7391181;19;20014;-60
2023/12/28 06:35:35;;;;;;;9.38;2.00;;;;;;;9.72;78.87;100823.16;7391119;19;20043;-61
2023/12/28 06:38:03;;;;;;;5.60;1.67;;;;;;;9.79;78.75;100834.16;7392220;19;20022;-61
2023/12/28 06:40:31;;;;;;;6.40;1.90;;;;;;;9.76;78.88;100837.00;7390053;19;20031;-61
2023/12/28 06:42:59;;;;;;;8.02;2.08;;;;;;;9.81;78.42;100826.97;7392386;19;20030;-61
2023/12/28 06:45:28;;;;;;;7.85;1.98;;;;;;;9.81;78.33;100829.63;7392476;19;20103;-61
2023/12/28 06:47:56;;;;;;;9.40;2.30;;;;;;;9.87;78.24;100829.19;7392080;19;20007;-61
2023/12/28 06:50:24;;;;;;;7.10;2.00;;;;;;;9.93;78.13;100826.13;7389198;19;20007;-61
2023/12/28 06:52:52;;;;;;;8.25;2.20;;;;;;;9.96;77.92;100812.69;7388628;19;20423;-61
2023/12/28 06:55:20;;;;;;;6.18;2.20;;;;;;;9.96;77.76;100820.63;7391862;19;20484;-61
2023/12/28 06:57:47;;;;;;;6.63;1.90;;;;;;;9.91;77.81;100814.78;7391647;19;20018;-61
2023/12/28 07:00:16;;;;;;;8.63;2.35;;;;;;;9.96;77.84;100819.78;7389105;19;20019;-61
2023/12/28 07:02:44;;;;;;;5.88;2.10;;;;;;;10.05;77.26;100819.13;7391634;19;20018;-61
2023/12/28 07:05:13;;;;;;;8.07;2.25;;;;;;;10.08;77.38;100816.28;7391435;19;20057;-61
2023/12/28 07:07:41;;;;;;;8.40;2.30;;;;;;;10.13;76.80;100829.16;7391458;19;20467;-60
2023/12/28 07:10:10;;;;;;;6.97;1.95;;;;;;;10.16;77.00;100818.38;7389188;19;20026;-61
2023/12/28 07:12:37;;;;;;;9.45;2.30;;;;;;;10.17;77.09;100818.25;7390555;19;20018;-61
2023/12/28 07:15:05;;;;;;;8.25;1.98;;;;;;;10.18;76.96;100817.28;7391724;19;20074;-61
2023/12/28 07:17:33;;;;;;;7.28;2.17;;;;;;;10.24;76.75;100821.31;7391096;19;20033;-61
2023/12/28 07:20:02;;;;;;;9.82;1.88;;;;;;;10.26;76.69;100819.41;7389040;19;20036;-61
2023/12/28 07:22:30;;;;;;;9.15;2.13;;;;;;;10.31;76.11;100824.41;7391692;19;20032;-60
2023/12/28 07:24:58;;;;;;;8.27;2.13;;;;;;;10.30;76.11;100818.25;7391125;19;20022;-60
2023/12/28 07:27:27;;;;;;;8.40;1.98;;;;;;;10.38;76.20;100820.34;7391000;19;20036;-61
2023/12/28 07:29:55;;;;;;;9.10;2.00;;;;;;;10.35;75.90;100816.13;7389102;19;20515;-61
2023/12/28 07:32:25;;;;;;;10.85;2.05;;;;;;;10.32;75.78;100810.22;7389881;19;20086;-61
2023/12/28 07:34:53;;;;;;;13.60;2.40;;;;;;;10.39;76.01;100817.59;7390975;19;20019;-61
2023/12/28 07:37:21;;;;;;;11.60;2.20;;;;;;;10.41;75.89;100814.84;7390977;19;20352;-61
2023/12/28 07:39:49;;;;;;;9.23;2.15;;;;;;;10.52;75.41;100840.53;7388830;19;20019;-61
2023/12/28 07:42:17;;;;;;;9.70;2.00;;;;;;;10.49;75.04;100812.47;7389062;19;20018;-61
2023/12/28 07:44:45;;;;;;;8.20;2.40;;;;;;;10.51;74.85;100833.56;7389871;19;20018;-61
2023/12/28 07:47:14;;;;;;;8.18;1.80;;;;;;;10.53;74.99;100823.69;7390936;19;20110;-60
2023/12/28 07:49:42;;;;;;;13.18;2.25;;;;;;;10.53;75.00;100810.44;7388858;19;20026;-61
2023/12/28 07:52:10;;;;;;;12.15;2.47;;;;;;;10.53;75.08;100823.69;7390282;19;20372;-61
2023/12/28 07:54:38;;;;;;;11.15;2.15;;;;;;;10.55;74.99;100809.38;7390134;19;20023;-62
2023/12/28 07:57:06;;;;;;;12.25;2.45;;;;;;;10.55;74.99;100833.22;7390292;19;20371;-61
2023/12/28 07:59:34;;;;;;;11.65;2.15;;;;;;;10.63;74.89;100814.97;7388041;19;20026;-61
2023/12/28 08:02:01;;;;;;;10.73;2.17;;;;;;;10.62;74.69;100812.44;7389940;19;20078;-60
2023/12/28 08:04:29;;;;;;;7.97;1.70;;;;;;;10.70;74.21;100834.75;7396912;19;20029;-63
2023/12/28 08:06:58;;;;;;;9.43;1.75;;;;;;;10.77;73.81;100810.47;7396214;19;20490;-61
2023/12/28 08:09:26;;;;;;;11.60;2.60;;;;;;;10.74;73.89;100827.44;7394766;19;20022;-61
2023/12/28 08:11:54;;;;;;;11.52;2.28;;;;;;;10.70;73.94;100826.81;7396910;19;20023;-61
2023/12/28 08:14:22;;;;;;;8.88;1.83;;;;;;;10.75;73.64;100823.81;7397423;19;20022;-62
2023/12/28 08:16:50;;;;;;;9.18;2.08;;;;;;;10.77;73.79;100827.22;7395968;19;20400;-62
2023/12/28 08:19:18;;;;;;;11.90;2.20;;;;;;;10.74;73.45;100843.31;7395324;19;20019;-62
2023/12/28 08:21:46;;;;;;;9.85;2.10;;;;;;;10.78;73.57;100850.09;7396467;19;20047;-62
2023/12/28 08:24:14;;;;;;;11.30;2.30;;;;;;;10.80;73.46;100831.41;7396868;19;20040;-62
2023/12/28 08:26:42;;;;;;;11.48;2.38;;;;;;;10.86;73.05;100842.41;7396671;19;20041;-61
2023/12/28 08:29:11;;;;;;;12.30;2.50;;;;;;;10.88;73.06;100840.53;7394312;19;20513;-61
2023/12/28 08:31:39;;;;;;;11.43;2.40;;;;;;;10.92;73.15;100836.69;7396703;19;20018;-61
2023/12/28 08:34:08;;;;;;;10.27;2.28;;;;;;;10.94;72.99;100829.44;7393618;19;20509;-61
2023/12/28 08:36:36;;;;;;;11.27;2.10;;;;;;;10.95;72.83;100835.59;7394951;19;20049;-61
2023/12/28 08:39:04;;;;;;;10.63;2.08;;;;;;;10.92;72.52;100830.53;7394147;19;20018;-61
2023/12/28 08:41:31;;;;;;;12.65;2.38;;;;;;;10.89;72.37;100831.59;7396084;19;20036;-62
2023/12/28 08:43:59;;;;;;;11.02;2.10;;;;;;;11.00;72.29;100824.69;7394627;19;20026;-59
2023/12/28 08:46:28;;;;;;;8.18;1.92;;;;;;;11.01;71.94;100823.72;7395202;19;20047;-61
2023/12/28 08:48:57;;;;;;;9.75;2.67;;;;;;;11.05;71.60;100835.75;7393238;19;20018;-61
2023/12/28 08:51:25;;;;;;;12.52;2.80;;;;;;;11.02;71.89;100830.69;7396281;19;20010;-61
2023/12/28 08:53:52;;;;;;;8.60;1.85;;;;;;;11.02;71.65;100836.00;7393368;19;20106;-62
2023/12/28 08:56:21;;;;;;;11.73;2.25;;;;;;;11.14;70.94;100835.94;7395718;19;20018;-63
2023/12/28 08:58:50;;;;;;;7.68;1.85;;;;;;;11.23;71.02;100839.69;7394165;19;20022;-62
2023/12/28 09:01:22;;;;;;;12.23;2.72;;;;;;;11.23;70.95;100842.34;7396651;19;20052;-62
2023/12/28 09:03:52;;;;;;;8.60;1.92;;;;;;;11.34;70.74;100847.69;7395126;19;20028;-62
2023/12/28 09:06:21;;;;;;;10.55;1.80;;;;;;;11.45;70.09;100857.50;7395877;19;20018;-62
2023/12/28 09:08:51;;;;;;;16.13;2.20;;;;;;;11.43;70.70;100856.75;7394274;19;20498;-62
2023/12/28 09:11:19;;;;;;;9.88;2.45;;;;;;;11.41;70.59;100866.66;7395320;19;20031;-62
2023/12/28 09:13:47;;;;;;;10.60;2.20;;;;;;;11.34;71.26;100873.38;7392455;19;20019;-62
2023/12/28 09:16:15;;;;;;;9.70;2.30;;;;;;;11.36;70.70;100880.22;7394457;19;20019;-62
2023/12/28 09:18:44;;;;;;;11.52;2.33;;;;;;;11.31;71.10;100857.69;7393603;19;20014;-62
2023/12/28 09:21:12;;;;;;;7.45;1.98;;;;;;;11.31;71.51;100862.97;7393799;19;20035;-62
2023/12/28 09:23:41;;;;;;;10.00;2.03;;;;;;;11.29;71.16;100870.19;7394680;19;20543;-62
2023/12/28 09:26:08;;;;;;;10.85;2.22;;;;;;;11.31;71.17;100866.47;7394576;19;20022;-62
2023/12/28 09:28:36;;;;;;;12.55;2.08;;;;;;;11.34;71.30;100865.41;7393875;19;20789;-62
2023/12/28 09:31:04;;;;;;;12.48;2.55;;;;;;;11.42;70.95;100855.06;7394742;19;20014;-62
2023/12/28 09:33:32;;;;;;;10.10;2.15;;;;;;;11.43;71.08;100852.28;7393099;19;20033;-62
2023/12/28 09:36:03;;;;;;;10.07;2.10;;;;;;;11.39;70.77;100858.78;7394618;19;20023;-62
2023/12/28 09:38:31;;;;;;;13.18;2.30;;;;;;;11.36;70.75;100859.00;7393145;19;20026;-62
2023/12/28 09:41:11;;;;;;;10.40;2.20;;;;;;;11.44;70.44;100853.13;7394746;19;20019;-62
2023/12/28 09:43:45;;;;;;;12.32;2.20;;;;;;;11.38;70.79;100841.19;7394471;19;20393;-62
2023/12/28 09:46:14;;;;;;;11.23;2.40;;;;;;;11.40;70.59;100851.66;7394831;19;20018;-62
2023/12/28 09:48:42;;;;;;;13.20;2.30;;;;;;;11.41;70.83;100879.91;7393282;19;20024;-62
2023/12/28 09:51:10;;;;;;;11.20;2.50;;;;;;;11.37;70.88;100852.78;7396766;19;20021;-62
2023/12/28 09:53:43;;;;;;;12.77;2.63;;;;;;;11.32;70.90;100854.06;7392984;19;20033;-62
2023/12/28 09:56:14;;;;;;;10.05;2.08;;;;;;;11.30;70.84;100862.13;7393831;19;20472;-62
2023/12/28 09:58:44;;;;;;;12.85;2.03;;;;;;;11.37;71.18;100881.94;7391288;19;20029;-62
2023/12/28 10:01:14;;;;;;;11.52;2.30;;;;;;;11.41;70.67;100885.19;7393735;19;20406;-62
2023/12/28 10:03:42;;;;;;;10.07;2.58;;;;;;;11.37;70.85;100870.47;7393941;19;20019;-62
2023/12/28 10:06:10;;;;;;;10.77;1.95;;;;;;;11.38;70.89;100867.72;7392498;19;20078;-61
2023/12/28 10:08:48;;;;;;;16.52;2.40;;;;;;;11.34;70.90;100845.03;7392534;19;20018;-62
2023/12/28 10:11:18;;;;;;;10.48;2.33;;;;;;;11.36;70.85;100861.66;7392836;19;20014;-62
2023/12/28 10:13:48;;;;;;;9.27;2.13;;;;;;;11.45;70.78;100889.31;7392707;19;20061;-60
2023/12/28 10:16:16;;;;;;;12.75;2.47;;;;;;;11.52;70.45;100873.75;7393114;19;20015;-60
2023/12/28 10:18:45;;;;;;;11.60;2.90;;;;;;;11.64;70.10;100875.50;7392026;19;20035;-60
2023/12/28 10:21:13;;;;;;;12.07;2.22;;;;;;;11.72;69.69;100883.72;7391677;19;20018;-60
2023/12/28 10:23:41;;;;;;;11.15;2.53;;;;;;;11.71;69.76;100887.31;7393252;19;20042;-61
2023/12/28 10:26:09;;;;;;;10.60;2.40;;;;;;;11.76;69.51;100882.53;7392685;19;20026;-62
2023/12/28 10:28:38;;;;;;;12.80;2.30;;;;;;;11.84;69.75;100884.63;7390298;19;20491;-61
2023/12/28 10:31:07;;;;;;;12.50;2.45;;;;;;;11.76;69.73;100887.00;7392576;19;20018;-61
2023/12/28 10:33:39;;;;;;;15.52;2.83;;;;;;;11.59;70.12;100881.13;7391647;19;20022;-61
2023/12/28 10:36:08;;;;;;;13.57;2.53;;;;;;;11.62;69.79;100895.97;7392374;19;20015;-63
2023/12/28 10:38:38;;;;;;;9.10;2.22;;;;;;;11.68;70.06;100890.22;7391010;19;20018;-63
2023/12/28 10:41:07;;;;;;;14.00;2.33;;;;;;;11.79;69.58;100878.75;7395400;19;20015;-62
2023/12/28 10:43:54;;;;;;;10.75;2.50;;;;;;;11.67;69.75;100880.56;7392595;19;20117;-62
2023/12/28 10:46:29;;;;;;;9.10;2.20;;;;;;;11.88;69.65;100889.56;7391169;19;20018;-62
2023/12/28 10:49:09;;;;;;;11.45;3.08;;;;;;;11.74;68.96;100892.41;7391281;19;20096;-62
2023/12/28 10:51:43;;;;;;;15.82;2.60;;;;;;;11.79;69.67;100894.69;7392536;19;20018;-62
2023/12/28 10:54:21;;;;;;;13.90;2.40;;;;;;;11.82;69.44;100890.00;7390036;19;20077;-61
2023/12/28 10:56:59;;;;;;;13.98;2.38;;;;;;;11.77;69.25;100881.56;7392687;19;20043;-62
2023/12/28 10:59:46;;;;;;;16.13;2.60;;;;;;;11.78;69.49;100888.53;7390350;19;20018;-61
2023/12/28 11:02:21;;;;;;;9.40;2.35;;;;;;;11.68;70.01;100879.63;7391297;19;20030;-63
2023/12/28 11:04:52;;;;;;;11.50;2.55;;;;;;;11.73;70.13;100866.00;7389999;19;20491;-63
2023/12/28 11:07:21;;;;;;;9.95;2.78;;;;;;;11.76;70.13;100893.13;7390988;19;20023;-63
2023/12/28 11:09:51;;;;;;;12.20;2.45;;;;;;;11.73;69.38;100877.44;7388935;19;20741;-63
2023/12/28 11:12:20;;;;;;;15.35;2.30;;;;;;;11.79;69.52;100873.47;7391044;19;20035;-63
2023/12/28 11:14:50;;;;;;;13.52;2.50;;;;;;;11.86;69.81;100885.31;7389552;19;20015;-61
2023/12/28 11:17:20;;;;;;;15.65;2.80;;;;;;;11.87;69.32;100879.91;7390502;19;20011;-60
2023/12/28 11:19:49;;;;;;;8.18;2.15;;;;;;;11.91;69.06;100886.69;7389841;19;20025;-61
2023/12/28 11:22:17;;;;;;;13.18;2.30;;;;;;;12.00;69.03;100895.72;7391626;19;20017;-61
2023/12/28 11:24:45;;;;;;;13.00;2.40;;;;;;;12.02;68.72;100885.84;7391765;19;20026;-62
2023/12/28 11:27:13;;;;;;;14.65;2.80;;;;;;;12.11;68.43;100878.97;7391688;19;20074;-62
2023/12/28 11:29:41;;;;;;;16.33;3.10;;;;;;;12.14;68.44;100870.78;7388049;19;20046;-62
2023/12/28 11:32:10;;;;;;;10.13;2.28;;;;;;;12.17;68.45;100886.44;7391072;19;20543;-62
2023/12/28 11:34:38;;;;;;;16.38;2.92;;;;;;;12.13;68.07;100877.03;7389696;19;20014;-62